createdAt,value
2018-12-04T00:00:02.055Z,18.78
2018-12-04T00:01:02.068Z,18.70
2018-12-04T00:02:02.072Z,18.78
2018-12-04T00:03:02.129Z,18.76
2018-12-04T00:04:02.202Z,18.78
2018-12-04T00:05:02.123Z,18.79
2018-12-04T00:06:02.170Z,18.83
2018-12-04T00:07:02.188Z,18.81
2018-12-04T00:08:02.289Z,18.83
2018-12-04T00:09:02.396Z,18.82
2018-12-04T00:10:02.316Z,18.82
2018-12-04T00:11:02.210Z,18.86
2018-12-04T00:12:02.338Z,18.83
2018-12-04T00:13:02.224Z,18.86
2018-12-04T00:14:02.395Z,18.91
2018-12-04T00:15:02.257Z,18.85
2018-12-04T00:16:02.275Z,18.81
2018-12-04T00:17:02.290Z,18.82
2018-12-04T00:18:02.292Z,18.81
2018-12-04T00:19:02.416Z,18.85
2018-12-04T00:20:02.348Z,18.83
2018-12-04T00:21:02.383Z,18.82
2018-12-04T00:22:02.403Z,18.89
2018-12-04T00:23:02.373Z,18.86
2018-12-04T00:24:02.485Z,18.85
2018-12-04T00:25:02.517Z,18.81
2018-12-04T00:26:02.413Z,18.78
2018-12-04T00:27:02.426Z,18.81
2018-12-04T00:28:02.452Z,18.73
2018-12-04T00:29:02.540Z,18.76
2018-12-04T00:30:02.471Z,18.78
2018-12-04T00:31:02.518Z,18.78
2018-12-04T00:32:02.499Z,18.74
2018-12-04T00:33:02.631Z,18.73
2018-12-04T00:34:02.745Z,18.76
2018-12-04T00:35:02.542Z,18.66
2018-12-04T00:36:02.542Z,18.66
2018-12-04T00:37:02.689Z,18.67
2018-12-04T00:38:02.573Z,18.74
2018-12-04T00:39:02.860Z,18.66
2018-12-04T00:40:02.727Z,18.58
2018-12-04T00:41:02.619Z,18.55
2018-12-04T00:42:02.677Z,18.61
2018-12-04T00:43:02.789Z,18.49
2018-12-04T00:44:02.932Z,18.52
2018-12-04T00:45:02.790Z,18.37
2018-12-04T00:46:02.694Z,18.34
2018-12-04T00:47:02.710Z,18.34
2018-12-04T00:48:02.834Z,18.28
2018-12-04T00:49:02.835Z,18.21
2018-12-04T00:50:02.749Z,18.12
2018-12-04T00:51:02.756Z,18.08
2018-12-04T00:52:02.766Z,18.06
2018-12-04T00:53:02.777Z,18.02
2018-12-04T00:54:02.951Z,18.00
2018-12-04T00:55:02.930Z,17.86
2018-12-04T00:56:02.846Z,17.86
2018-12-04T00:57:02.962Z,17.71
2018-12-04T00:58:02.842Z,17.80
2018-12-04T00:59:02.980Z,17.72
2018-12-04T01:00:02.879Z,17.71
2018-12-04T01:01:02.904Z,17.54
2018-12-04T01:02:02.912Z,17.57
2018-12-04T01:03:02.911Z,17.50
2018-12-04T01:04:03.204Z,17.52
2018-12-04T01:05:02.942Z,17.52
2018-12-04T01:06:03.077Z,17.46
2018-12-04T01:07:03.095Z,17.49
2018-12-04T01:08:02.988Z,17.46
2018-12-04T01:09:03.099Z,17.37
2018-12-04T01:10:03.133Z,17.42
2018-12-04T01:11:03.023Z,17.37
2018-12-04T01:12:03.164Z,17.31
2018-12-04T01:13:03.062Z,17.35
2018-12-04T01:14:03.165Z,17.34
2018-12-04T01:15:03.200Z,17.27
2018-12-04T01:16:03.216Z,17.30
2018-12-04T01:17:03.227Z,17.30
2018-12-04T01:18:03.109Z,17.37
2018-12-04T01:19:03.224Z,17.30
2018-12-04T01:20:03.176Z,17.32
2018-12-04T01:21:03.179Z,17.37
2018-12-04T01:22:03.178Z,17.27
2018-12-04T01:23:03.233Z,17.30
2018-12-04T01:24:03.284Z,17.30
2018-12-04T01:25:03.239Z,17.23
2018-12-04T01:26:03.223Z,17.27
2018-12-04T01:27:03.238Z,17.14
2018-12-04T01:28:03.245Z,17.04
2018-12-04T01:29:03.488Z,17.05
2018-12-04T01:30:03.268Z,17.02
2018-12-04T01:31:03.413Z,17.02
2018-12-04T01:32:03.300Z,16.95
2018-12-04T01:33:03.324Z,17.02
2018-12-04T01:34:03.413Z,16.95
2018-12-04T01:35:03.346Z,16.92
2018-12-04T01:36:03.352Z,16.98
2018-12-04T01:37:03.484Z,16.94
2018-12-04T01:38:03.425Z,17.01
2018-12-04T01:39:03.490Z,16.99
2018-12-04T01:40:03.408Z,17.04
2018-12-04T01:41:03.439Z,17.10
2018-12-04T01:42:03.470Z,17.13
2018-12-04T01:43:03.475Z,17.07
2018-12-04T01:44:03.552Z,17.10
2018-12-04T01:45:03.484Z,17.17
2018-12-04T01:46:03.489Z,17.12
2018-12-04T01:47:03.493Z,17.27
2018-12-04T01:48:03.512Z,17.24
2018-12-04T01:49:03.566Z,17.20
2018-12-04T01:50:03.662Z,17.13
2018-12-04T01:51:03.540Z,17.14
2018-12-04T01:52:03.603Z,17.20
2018-12-04T01:53:03.570Z,17.20
2018-12-04T01:54:03.586Z,17.23
2018-12-04T01:55:03.632Z,17.19
2018-12-04T01:56:03.714Z,17.14
2018-12-04T01:57:03.746Z,17.10
2018-12-04T01:58:03.760Z,17.07
2018-12-04T01:59:03.653Z,17.19
2018-12-04T02:00:03.657Z,17.12
2018-12-04T02:01:03.878Z,17.22
2018-12-04T02:02:03.817Z,17.19
2018-12-04T02:03:03.828Z,17.23
2018-12-04T02:04:03.704Z,17.14
2018-12-04T02:05:03.741Z,17.17
2018-12-04T02:06:04.018Z,17.13
2018-12-04T02:07:03.769Z,17.13
2018-12-04T02:08:03.769Z,17.16
2018-12-04T02:09:03.789Z,17.19
2018-12-04T02:10:03.793Z,17.31
2018-12-04T02:11:03.898Z,17.31
2018-12-04T02:12:03.941Z,17.35
2018-12-04T02:13:03.831Z,17.41
2018-12-04T02:14:03.841Z,17.30
2018-12-04T02:15:03.862Z,17.44
2018-12-04T02:16:03.979Z,17.52
2018-12-04T02:17:03.886Z,17.59
2018-12-04T02:18:03.892Z,17.66
2018-12-04T02:19:03.911Z,17.68
2018-12-04T02:20:03.933Z,17.79
2018-12-04T02:21:05.285Z,17.72
2018-12-04T02:22:03.952Z,17.80
2018-12-04T02:23:03.981Z,17.76
2018-12-04T02:24:04.097Z,17.78
2018-12-04T02:25:03.990Z,17.94
2018-12-04T02:26:04.042Z,17.94
2018-12-04T02:27:04.017Z,18.05
2018-12-04T02:28:04.042Z,18.11
2018-12-04T02:29:04.087Z,18.12
2018-12-04T02:30:04.178Z,18.18
2018-12-04T02:31:04.062Z,18.21
2018-12-04T02:32:04.204Z,18.19
2018-12-04T02:33:04.163Z,18.27
2018-12-04T02:34:04.222Z,18.24
2018-12-04T02:35:04.116Z,18.24
2018-12-04T02:36:04.127Z,18.23
2018-12-04T02:37:04.158Z,18.21
2018-12-04T02:38:04.172Z,18.16
2018-12-04T02:39:04.333Z,18.09
2018-12-04T02:40:04.315Z,18.03
2018-12-04T02:41:04.221Z,18.02
2018-12-04T02:42:04.215Z,17.93
2018-12-04T02:43:04.237Z,17.87
2018-12-04T02:45:04.274Z,17.87
2018-12-04T02:46:04.271Z,17.79
2018-12-04T02:47:04.302Z,17.72
2018-12-04T02:48:04.337Z,17.72
2018-12-04T02:49:04.409Z,17.69
2018-12-04T02:50:04.323Z,17.63
2018-12-04T02:51:04.349Z,17.63
2018-12-04T02:52:04.351Z,17.50
2018-12-04T02:53:04.372Z,17.39
2018-12-04T02:54:04.652Z,17.37
2018-12-04T02:55:04.398Z,17.35
2018-12-04T02:56:04.394Z,17.42
2018-12-04T02:57:04.432Z,17.23
2018-12-04T02:58:04.437Z,17.32
2018-12-04T02:59:04.602Z,17.28
2018-12-04T03:00:04.468Z,17.24
2018-12-04T03:01:04.481Z,17.20
2018-12-04T03:02:04.506Z,17.27
2018-12-04T03:03:04.542Z,17.20
2018-12-04T03:04:04.616Z,17.17
2018-12-04T03:05:04.538Z,17.16
2018-12-04T03:06:04.542Z,17.20
2018-12-04T03:07:04.571Z,17.16
2018-12-04T03:08:04.562Z,17.14
2018-12-04T03:09:04.720Z,17.10
2018-12-04T03:10:04.588Z,17.01
2018-12-04T03:11:04.613Z,17.12
2018-12-04T03:12:04.617Z,17.05
2018-12-04T03:13:04.620Z,17.04
2018-12-04T03:14:04.803Z,17.01
2018-12-04T03:15:04.655Z,17.02
2018-12-04T03:16:04.790Z,16.99
2018-12-04T03:17:04.691Z,17.05
2018-12-04T03:18:04.691Z,17.01
2018-12-04T03:19:04.799Z,16.94
2018-12-04T03:20:04.730Z,17.04
2018-12-04T03:21:04.732Z,16.94
2018-12-04T03:22:04.758Z,16.87
2018-12-04T03:23:04.757Z,16.89
2018-12-04T03:24:04.916Z,16.98
2018-12-04T03:25:04.776Z,16.84
2018-12-04T03:26:04.803Z,16.91
2018-12-04T03:27:04.807Z,17.02
2018-12-04T03:28:04.817Z,17.01
2018-12-04T03:29:04.949Z,17.04
2018-12-04T03:30:04.969Z,16.94
2018-12-04T03:31:04.868Z,17.02
2018-12-04T03:32:04.871Z,16.97
2018-12-04T03:33:04.928Z,17.01
2018-12-04T03:34:05.046Z,17.02
2018-12-04T03:35:04.927Z,17.02
2018-12-04T03:36:05.110Z,17.04
2018-12-04T03:37:04.943Z,17.02
2018-12-04T03:38:04.950Z,16.99
2018-12-04T03:39:05.187Z,17.05
2018-12-04T03:40:04.982Z,17.09
2018-12-04T03:41:04.999Z,17.10
2018-12-04T03:42:04.994Z,17.04
2018-12-04T03:43:05.026Z,17.02
2018-12-04T03:44:05.137Z,17.04
2018-12-04T03:45:05.163Z,17.04
2018-12-04T03:46:05.053Z,17.07
2018-12-04T03:47:05.077Z,17.02
2018-12-04T03:48:05.075Z,16.97
2018-12-04T03:49:05.242Z,17.02
2018-12-04T03:50:05.109Z,17.07
2018-12-04T03:51:05.242Z,17.01
2018-12-04T03:52:05.146Z,16.98
2018-12-04T03:53:05.145Z,16.98
2018-12-04T03:54:05.246Z,16.91
2018-12-04T03:55:05.228Z,16.82
2018-12-04T03:56:05.195Z,16.92
2018-12-04T03:57:05.182Z,16.89
2018-12-04T03:58:05.253Z,16.89
2018-12-04T03:59:05.424Z,16.87
2018-12-04T04:00:05.252Z,16.94
2018-12-04T04:01:05.242Z,16.91
2018-12-04T04:02:05.266Z,16.89
2018-12-04T04:03:05.271Z,16.87
2018-12-04T04:04:05.555Z,16.87
2018-12-04T04:05:05.419Z,16.80
2018-12-04T04:06:05.302Z,16.80
2018-12-04T04:07:05.327Z,16.66
2018-12-04T04:08:05.396Z,16.68
2018-12-04T04:09:05.446Z,16.68
2018-12-04T04:10:05.356Z,16.69
2018-12-04T04:11:05.362Z,16.66
2018-12-04T04:12:05.387Z,16.73
2018-12-04T04:13:05.397Z,16.68
2018-12-04T04:14:05.561Z,16.82
2018-12-04T04:15:05.421Z,16.82
2018-12-04T04:16:05.428Z,16.84
2018-12-04T04:17:05.457Z,16.65
2018-12-04T04:18:05.472Z,16.84
2018-12-04T04:19:05.635Z,16.83
2018-12-04T04:20:05.530Z,16.77
2018-12-04T04:21:05.498Z,16.77
2018-12-04T04:22:05.537Z,16.84
2018-12-04T04:23:05.564Z,16.80
2018-12-04T04:24:05.691Z,16.69
2018-12-04T04:25:05.558Z,16.79
2018-12-04T04:26:05.558Z,16.76
2018-12-04T04:27:05.579Z,16.73
2018-12-04T04:28:05.717Z,16.72
2018-12-04T04:29:05.655Z,16.66
2018-12-04T04:30:05.616Z,16.72
2018-12-04T04:31:05.634Z,16.68
2018-12-04T04:32:05.640Z,16.69
2018-12-04T04:33:05.648Z,16.72
2018-12-04T04:34:05.718Z,16.73
2018-12-04T04:35:05.666Z,16.82
2018-12-04T04:36:05.790Z,16.86
2018-12-04T04:37:05.730Z,16.89
2018-12-04T04:38:05.837Z,16.87
2018-12-04T04:39:05.779Z,16.84
2018-12-04T04:40:05.764Z,17.02
2018-12-04T04:41:05.842Z,17.02
2018-12-04T04:42:05.784Z,16.99
2018-12-04T04:43:05.776Z,16.94
2018-12-04T04:44:05.792Z,17.04
2018-12-04T04:45:05.806Z,16.99
2018-12-04T04:46:05.939Z,17.01
2018-12-04T04:47:05.872Z,16.92
2018-12-04T04:48:05.848Z,16.91
2018-12-04T04:49:05.869Z,16.87
2018-12-04T04:50:05.989Z,16.84
2018-12-04T04:51:06.027Z,16.84
2018-12-04T04:52:05.889Z,16.94
2018-12-04T04:53:05.912Z,16.84
2018-12-04T04:54:05.918Z,16.79
2018-12-04T04:55:05.945Z,16.76
2018-12-04T04:56:06.105Z,16.77
2018-12-04T04:57:05.985Z,16.65
2018-12-04T04:58:06.020Z,16.62
2018-12-04T04:59:05.980Z,16.69
2018-12-04T05:00:05.985Z,16.66
2018-12-04T05:01:06.095Z,16.50
2018-12-04T05:02:06.076Z,16.58
2018-12-04T05:03:06.044Z,16.47
2018-12-04T05:04:06.044Z,16.59
2018-12-04T05:05:06.072Z,16.58
2018-12-04T05:06:06.228Z,16.55
2018-12-04T05:07:06.105Z,16.50
2018-12-04T05:08:06.095Z,16.61
2018-12-04T05:09:06.107Z,16.62
2018-12-04T05:10:06.127Z,16.50
2018-12-04T05:11:06.297Z,16.47
2018-12-04T05:12:06.173Z,16.57
2018-12-04T05:13:06.166Z,16.51
2018-12-04T05:14:06.190Z,16.50
2018-12-04T05:15:06.206Z,16.36
2018-12-04T05:16:06.247Z,16.40
2018-12-04T05:17:06.230Z,16.37
2018-12-04T05:18:06.253Z,16.39
2018-12-04T05:19:06.235Z,16.40
2018-12-04T05:20:06.233Z,16.36
2018-12-04T05:21:06.367Z,16.36
2018-12-04T05:22:06.283Z,16.24
2018-12-04T05:23:06.301Z,16.18
2018-12-04T05:24:06.286Z,16.10
2018-12-04T05:25:06.303Z,16.16
2018-12-04T05:26:06.433Z,16.08
2018-12-04T05:27:06.356Z,16.06
2018-12-04T05:28:06.342Z,16.02
2018-12-04T05:29:06.384Z,15.88
2018-12-04T05:30:06.376Z,15.90
2018-12-04T05:31:06.496Z,15.85
2018-12-04T05:32:06.422Z,15.80
2018-12-04T05:33:06.400Z,15.84
2018-12-04T05:34:06.431Z,15.75
2018-12-04T05:35:06.489Z,15.75
2018-12-04T05:36:06.570Z,15.81
2018-12-04T05:37:06.463Z,15.88
2018-12-04T05:38:06.485Z,15.85
2018-12-04T05:39:06.483Z,15.91
2018-12-04T05:40:06.504Z,15.98
2018-12-04T05:41:06.651Z,15.98
2018-12-04T05:42:06.528Z,16.00
2018-12-04T05:43:06.548Z,16.02
2018-12-04T05:44:06.555Z,16.16
2018-12-04T05:45:06.572Z,16.10
2018-12-04T05:46:06.794Z,16.06
2018-12-04T05:47:06.595Z,16.09
2018-12-04T05:48:06.602Z,16.06
2018-12-04T05:49:06.616Z,16.03
2018-12-04T05:50:06.628Z,15.98
2018-12-04T05:51:06.857Z,16.00
2018-12-04T05:52:06.768Z,15.96
2018-12-04T05:53:06.703Z,15.92
2018-12-04T05:54:06.676Z,15.94
2018-12-04T05:55:06.729Z,15.96
2018-12-04T05:56:06.863Z,15.98
2018-12-04T05:57:06.777Z,15.98
2018-12-04T05:58:06.728Z,16.06
2018-12-04T05:59:06.742Z,16.08
2018-12-04T06:00:06.764Z,16.10
2018-12-04T06:01:06.870Z,16.13
2018-12-04T06:02:06.890Z,16.06
2018-12-04T06:03:06.780Z,16.08
2018-12-04T06:04:06.801Z,16.08
2018-12-04T06:05:06.799Z,16.03
2018-12-04T06:06:06.937Z,15.99
2018-12-04T06:07:06.846Z,16.02
2018-12-04T06:08:06.841Z,15.94
2018-12-04T06:09:06.981Z,15.96
2018-12-04T06:10:06.864Z,15.90
2018-12-04T06:11:06.937Z,15.81
2018-12-04T06:12:06.912Z,15.76
2018-12-04T06:13:06.915Z,15.81
2018-12-04T06:14:06.922Z,15.75
2018-12-04T06:15:06.920Z,15.76
2018-12-04T06:16:07.083Z,15.75
2018-12-04T06:17:07.083Z,15.67
2018-12-04T06:18:06.979Z,15.62
2018-12-04T06:19:07.005Z,15.66
2018-12-04T06:20:07.005Z,15.60
2018-12-04T06:21:07.101Z,15.73
2018-12-04T06:22:07.029Z,15.78
2018-12-04T06:23:07.032Z,15.83
2018-12-04T06:24:07.054Z,15.88
2018-12-04T06:25:07.064Z,15.83
2018-12-04T06:26:07.170Z,15.91
2018-12-04T06:27:07.204Z,15.96
2018-12-04T06:28:07.092Z,16.02
2018-12-04T06:29:07.108Z,15.96
2018-12-04T06:30:07.117Z,16.06
2018-12-04T06:31:07.349Z,15.99
2018-12-04T06:32:07.196Z,16.05
2018-12-04T06:33:07.160Z,16.13
2018-12-04T06:34:07.155Z,16.12
2018-12-04T06:35:07.300Z,16.09
2018-12-04T06:36:07.296Z,16.18
2018-12-04T06:37:07.327Z,16.25
2018-12-04T06:38:07.218Z,16.31
2018-12-04T06:39:07.222Z,16.26
2018-12-04T06:40:07.261Z,16.32
2018-12-04T06:41:07.355Z,16.25
2018-12-04T06:42:07.267Z,16.24
2018-12-04T06:43:07.284Z,16.29
2018-12-04T06:44:07.290Z,16.24
2018-12-04T06:45:07.298Z,16.32
2018-12-04T06:46:07.535Z,16.29
2018-12-04T06:47:07.316Z,16.39
2018-12-04T06:48:07.344Z,16.43
2018-12-04T06:49:07.357Z,16.43
2018-12-04T06:50:07.386Z,16.37
2018-12-04T06:51:07.523Z,16.37
2018-12-04T06:52:07.393Z,16.41
2018-12-04T06:53:07.522Z,16.44
2018-12-04T06:54:07.434Z,16.47
2018-12-04T06:55:07.432Z,16.43
2018-12-04T06:56:07.544Z,16.36
2018-12-04T06:57:07.446Z,16.41
2018-12-04T06:58:07.583Z,16.39
2018-12-04T06:59:07.470Z,16.34
2018-12-04T07:00:07.535Z,16.25
2018-12-04T07:01:07.771Z,16.31
2018-12-04T07:02:07.531Z,16.18
2018-12-04T07:03:07.535Z,16.22
2018-12-04T07:04:07.526Z,16.18
2018-12-04T07:05:07.563Z,16.12
2018-12-04T07:06:07.659Z,16.08
2018-12-04T07:07:07.577Z,16.16
2018-12-04T07:08:07.598Z,16.05
2018-12-04T07:09:07.613Z,16.02
2018-12-04T07:10:07.784Z,15.94
2018-12-04T07:11:07.692Z,15.88
2018-12-04T07:12:07.639Z,15.83
2018-12-04T07:13:07.660Z,15.87
2018-12-04T07:14:07.660Z,15.83
2018-12-04T07:15:07.682Z,15.83
2018-12-04T07:16:07.857Z,15.85
2018-12-04T07:17:07.743Z,15.80
2018-12-04T07:18:07.708Z,15.80
2018-12-04T07:19:07.724Z,15.81
2018-12-04T07:20:07.858Z,15.72
2018-12-04T07:21:07.968Z,15.65
2018-12-04T07:22:07.771Z,15.67
2018-12-04T07:23:07.892Z,15.67
2018-12-04T07:24:07.781Z,15.66
2018-12-04T07:25:07.794Z,15.65
2018-12-04T07:26:07.908Z,15.75
2018-12-04T07:27:07.826Z,15.67
2018-12-04T07:28:07.833Z,15.65
2018-12-04T07:29:07.856Z,15.67
2018-12-04T07:30:07.858Z,15.65
2018-12-04T07:31:07.922Z,15.66
2018-12-04T07:32:08.003Z,15.70
2018-12-04T07:33:07.947Z,15.66
2018-12-04T07:34:07.903Z,15.65
2018-12-04T07:35:07.928Z,15.66
2018-12-04T07:36:07.949Z,15.69
2018-12-04T07:37:07.932Z,15.80
2018-12-04T07:38:08.105Z,15.72
2018-12-04T07:39:07.963Z,15.78
2018-12-04T07:40:07.977Z,15.83
2018-12-04T07:41:08.113Z,15.84
2018-12-04T07:42:07.999Z,15.81
2018-12-04T07:43:09.413Z,15.87
2018-12-04T07:44:08.039Z,15.90
2018-12-04T07:45:08.030Z,15.96
2018-12-04T07:46:08.065Z,16.00
2018-12-04T07:47:08.059Z,16.00
2018-12-04T07:48:08.148Z,16.00
2018-12-04T07:49:08.100Z,15.99
2018-12-04T07:50:08.223Z,15.99
2018-12-04T07:51:08.125Z,15.88
2018-12-04T07:52:08.125Z,15.92
2018-12-04T07:53:08.231Z,15.96
2018-12-04T07:54:08.148Z,15.90
2018-12-04T07:55:08.161Z,15.91
2018-12-04T07:56:08.188Z,15.92
2018-12-04T07:57:08.199Z,15.92
2018-12-04T07:58:08.266Z,15.85
2018-12-04T07:59:08.332Z,15.75
2018-12-04T08:00:08.228Z,15.78
2018-12-04T08:01:08.232Z,15.80
2018-12-04T08:02:08.235Z,15.72
2018-12-04T08:03:08.318Z,15.67
2018-12-04T08:04:08.278Z,15.65
2018-12-04T08:05:08.283Z,15.67
2018-12-04T08:06:08.472Z,15.66
2018-12-04T08:07:08.306Z,15.69
2018-12-04T08:08:08.327Z,15.66
2018-12-04T08:09:08.345Z,15.59
2018-12-04T08:10:08.354Z,15.59
2018-12-04T08:11:08.453Z,15.65
2018-12-04T08:12:08.395Z,15.50
2018-12-04T08:13:08.428Z,15.63
2018-12-04T08:14:08.400Z,15.65
2018-12-04T08:15:08.412Z,15.63
2018-12-04T08:16:08.586Z,15.65
2018-12-04T08:17:08.423Z,15.66
2018-12-04T08:18:08.447Z,15.67
2018-12-04T08:19:08.578Z,15.57
2018-12-04T08:20:08.459Z,15.69
2018-12-04T08:21:08.533Z,15.75
2018-12-04T08:22:08.589Z,15.73
2018-12-04T08:23:08.508Z,15.75
2018-12-04T08:24:08.536Z,15.78
2018-12-04T08:25:08.540Z,15.78
2018-12-04T08:26:08.542Z,15.73
2018-12-04T08:27:08.708Z,15.88
2018-12-04T08:28:08.591Z,15.80
2018-12-04T08:29:08.573Z,15.84
2018-12-04T08:30:08.595Z,15.87
2018-12-04T08:31:08.648Z,15.98
2018-12-04T08:32:09.918Z,16.00
2018-12-04T08:33:08.650Z,16.08
2018-12-04T08:34:08.662Z,16.09
2018-12-04T08:35:08.670Z,16.17
2018-12-04T08:36:08.668Z,16.32
2018-12-04T08:37:08.788Z,16.34
2018-12-04T08:38:08.698Z,16.39
2018-12-04T08:39:13.083Z,16.41
2018-12-04T08:40:08.721Z,16.47
2018-12-04T08:41:08.745Z,16.47
2018-12-04T08:42:08.799Z,16.65
2018-12-04T08:43:08.813Z,16.65
2018-12-04T08:44:08.892Z,16.79
2018-12-04T08:45:08.779Z,16.73
2018-12-04T08:46:08.784Z,16.89
2018-12-04T08:47:08.804Z,16.94
2018-12-04T08:48:08.964Z,17.01
2018-12-04T08:49:08.832Z,17.01
2018-12-04T08:50:08.853Z,17.05
2018-12-04T08:51:08.853Z,17.10
2018-12-04T08:52:08.870Z,17.22
2018-12-04T08:53:08.973Z,17.17
2018-12-04T08:54:08.912Z,17.28
2018-12-04T08:55:08.908Z,17.30
2018-12-04T08:56:08.919Z,17.28
2018-12-04T08:57:08.932Z,17.39
2018-12-04T08:58:09.053Z,17.44
2018-12-04T08:59:08.965Z,17.49
2018-12-04T09:00:08.984Z,17.53
2018-12-04T09:01:09.080Z,17.63
2018-12-04T09:02:09.015Z,17.65
2018-12-04T09:03:09.213Z,17.66
2018-12-04T09:04:09.031Z,17.73
2018-12-04T09:05:09.059Z,17.86
2018-12-04T09:06:09.055Z,17.76
2018-12-04T09:07:09.079Z,17.87
2018-12-04T09:08:09.578Z,17.98
2018-12-04T09:09:09.089Z,18.11
2018-12-04T09:10:09.104Z,18.11
2018-12-04T09:11:09.236Z,18.19
2018-12-04T09:12:09.253Z,18.28
2018-12-04T09:13:09.175Z,18.33
2018-12-04T09:14:09.152Z,18.43
2018-12-04T09:15:09.178Z,18.55
2018-12-04T09:16:09.290Z,18.58
2018-12-04T09:17:09.225Z,18.64
2018-12-04T09:18:09.282Z,18.76
2018-12-04T09:19:09.256Z,18.78
2018-12-04T09:20:09.261Z,18.79
2018-12-04T09:21:09.456Z,18.83
2018-12-04T09:22:09.299Z,18.74
2018-12-04T09:23:09.365Z,18.82
2018-12-04T09:24:09.311Z,18.88
2018-12-04T09:25:09.343Z,18.88
2018-12-04T09:26:09.417Z,18.85
2018-12-04T09:27:09.341Z,18.91
2018-12-04T09:28:09.390Z,18.85
2018-12-04T09:29:09.406Z,18.89
2018-12-04T09:30:09.397Z,19.05
2018-12-04T09:31:09.452Z,19.05
2018-12-04T09:32:09.431Z,19.17
2018-12-04T09:33:09.440Z,19.12
2018-12-04T09:34:09.570Z,19.32
2018-12-04T09:35:09.475Z,19.24
2018-12-04T09:36:09.574Z,19.29
2018-12-04T09:37:09.496Z,19.47
2018-12-04T09:38:09.507Z,19.56
2018-12-04T09:39:09.524Z,19.62
2018-12-04T09:40:09.552Z,19.64
2018-12-04T09:41:09.769Z,19.62
2018-12-04T09:42:09.565Z,19.56
2018-12-04T09:43:09.572Z,19.63
2018-12-04T09:44:09.598Z,19.67
2018-12-04T09:45:09.607Z,19.71
2018-12-04T09:46:09.616Z,19.75
2018-12-04T09:47:09.786Z,19.75
2018-12-04T09:48:09.663Z,19.72
2018-12-04T09:49:09.683Z,19.85
2018-12-04T09:50:09.691Z,19.93
2018-12-04T09:51:09.701Z,20.04
2018-12-04T09:52:09.859Z,20.07
2018-12-04T09:53:09.848Z,20.15
2018-12-04T09:54:09.739Z,20.30
2018-12-04T09:55:09.755Z,20.34
2018-12-04T09:56:09.772Z,20.40
2018-12-04T09:57:09.938Z,20.52
2018-12-04T09:58:09.925Z,20.59
2018-12-04T09:59:09.887Z,20.68
2018-12-04T10:00:09.858Z,20.77
2018-12-04T10:01:09.874Z,20.93
2018-12-04T10:02:09.977Z,21.04
2018-12-04T10:03:09.924Z,21.04
2018-12-04T10:04:09.916Z,21.10
2018-12-04T10:05:09.909Z,21.19
2018-12-04T10:06:09.930Z,21.35
2018-12-04T10:07:10.063Z,21.44
2018-12-04T10:08:09.971Z,21.56
2018-12-04T10:09:10.012Z,21.68
2018-12-04T10:10:10.118Z,21.84
2018-12-04T10:11:10.010Z,22.16
2018-12-04T10:12:10.119Z,22.59
2018-12-04T10:13:10.093Z,23.25
2018-12-04T10:14:10.066Z,23.69
2018-12-04T10:15:10.126Z,24.41
2018-12-04T10:16:10.096Z,25.14
2018-12-04T10:17:10.218Z,25.74
2018-12-04T10:18:10.138Z,26.26
2018-12-04T10:19:10.143Z,26.79
2018-12-04T10:20:10.162Z,27.19
2018-12-04T10:21:10.301Z,27.78
2018-12-04T10:22:10.339Z,28.10
2018-12-04T10:23:10.212Z,28.35
2018-12-04T10:24:10.258Z,28.16
2018-12-04T10:25:10.377Z,27.90
2018-12-04T10:26:10.396Z,27.76
2018-12-04T10:27:10.483Z,27.68
2018-12-04T10:28:10.303Z,27.66
2018-12-04T10:29:10.345Z,28.06
2018-12-04T10:30:10.485Z,28.41
2018-12-04T10:31:10.375Z,28.84
2018-12-04T10:32:10.494Z,29.30
2018-12-04T10:33:10.408Z,29.74
2018-12-04T10:34:10.436Z,30.40
2018-12-04T10:35:10.470Z,30.76
2018-12-04T10:36:10.486Z,30.96
2018-12-04T10:37:10.655Z,31.20
2018-12-04T10:38:10.512Z,31.62
2018-12-04T10:39:10.522Z,31.92
2018-12-04T10:40:10.557Z,32.17
2018-12-04T10:41:10.578Z,32.24
2018-12-04T10:42:10.642Z,32.35
2018-12-04T10:43:10.629Z,32.60
2018-12-04T10:44:10.634Z,32.81
2018-12-04T10:45:10.664Z,32.93
2018-12-04T10:46:10.828Z,33.01
2018-12-04T10:47:10.700Z,33.28
2018-12-04T10:48:10.722Z,33.55
2018-12-04T10:49:10.773Z,34.02
2018-12-04T10:50:10.888Z,34.58
2018-12-04T10:51:10.836Z,35.03
2018-12-04T10:52:10.827Z,35.27
2018-12-04T10:53:10.864Z,35.52
2018-12-04T10:54:10.870Z,35.56
2018-12-04T10:55:10.890Z,35.69
2018-12-04T10:56:11.002Z,35.69
2018-12-04T10:57:10.920Z,35.69
2018-12-04T10:58:10.956Z,35.81
2018-12-04T10:59:10.987Z,35.74
2018-12-04T11:00:11.006Z,35.49
2018-12-04T11:01:11.134Z,35.39
2018-12-04T11:02:11.056Z,35.01
2018-12-04T11:03:11.080Z,34.83
2018-12-04T11:04:11.111Z,34.81
2018-12-04T11:05:11.117Z,34.91
2018-12-04T11:06:11.260Z,35.05
2018-12-04T11:07:11.176Z,35.22
2018-12-04T11:08:11.198Z,35.53
2018-12-04T11:09:11.228Z,35.81
2018-12-04T11:10:11.263Z,35.90
2018-12-04T11:11:11.575Z,36.16
2018-12-04T11:12:12.337Z,36.11
2018-12-04T11:13:11.359Z,36.29
2018-12-04T11:14:11.349Z,36.44
2018-12-04T11:15:11.396Z,36.43
2018-12-04T11:16:11.393Z,36.47
2018-12-04T11:17:11.635Z,36.73
2018-12-04T11:18:11.432Z,36.89
2018-12-04T11:19:11.471Z,36.99
2018-12-04T11:20:11.488Z,37.19
2018-12-04T11:21:11.517Z,37.31
2018-12-04T11:22:11.714Z,37.47
2018-12-04T11:23:11.556Z,37.54
2018-12-04T11:24:11.584Z,37.53
2018-12-04T11:25:11.623Z,37.48
2018-12-04T11:26:11.694Z,37.79
2018-12-04T11:27:11.818Z,37.82
2018-12-04T11:28:11.692Z,37.82
2018-12-04T11:29:11.841Z,37.82
2018-12-04T11:30:11.746Z,37.60
2018-12-04T11:31:11.780Z,37.64
2018-12-04T11:32:11.898Z,37.95
2018-12-04T11:33:11.825Z,38.50
2018-12-04T11:34:11.852Z,38.76
2018-12-04T11:35:11.887Z,38.88
2018-12-04T11:36:12.017Z,38.84
2018-12-04T11:37:12.024Z,38.77
2018-12-04T11:38:11.958Z,38.69
2018-12-04T11:39:11.976Z,38.79
2018-12-04T11:40:11.995Z,39.11
2018-12-04T11:41:12.061Z,39.07
2018-12-04T11:42:12.202Z,39.00
2018-12-04T11:43:12.073Z,38.72
2018-12-04T11:44:12.105Z,38.70
2018-12-04T11:45:12.257Z,38.79
2018-12-04T11:46:12.175Z,39.11
2018-12-04T11:47:12.236Z,39.30
2018-12-04T11:48:12.220Z,39.30
2018-12-04T11:49:12.239Z,39.41
2018-12-04T11:50:12.260Z,39.61
2018-12-04T11:51:12.306Z,39.73
2018-12-04T11:52:12.442Z,40.20
2018-12-04T11:53:12.377Z,40.31
2018-12-04T11:54:12.374Z,40.43
2018-12-04T11:55:12.401Z,40.62
2018-12-04T11:56:12.449Z,40.67
2018-12-04T11:58:12.494Z,40.48
2018-12-04T11:59:12.531Z,40.61
2018-12-04T12:00:12.538Z,40.77
2018-12-04T12:01:12.648Z,40.93
2018-12-04T12:03:12.630Z,41.05
2018-12-04T12:04:12.730Z,40.85
2018-12-04T12:05:12.703Z,40.96
2018-12-04T12:06:12.720Z,41.04
2018-12-04T12:07:12.785Z,40.92
2018-12-04T12:08:12.784Z,40.81
2018-12-04T12:09:12.791Z,40.35
2018-12-04T12:10:12.827Z,39.91
2018-12-04T12:11:12.859Z,39.93
2018-12-04T12:12:12.924Z,40.00
2018-12-04T12:13:12.908Z,39.91
2018-12-04T12:14:12.981Z,39.63
2018-12-04T12:15:18.005Z,39.41
2018-12-04T12:16:13.211Z,39.26
2018-12-04T12:17:13.024Z,39.54
2018-12-04T12:18:13.100Z,39.80
2018-12-04T12:19:13.082Z,39.66
2018-12-04T12:20:13.112Z,39.63
2018-12-04T12:21:13.239Z,39.64
2018-12-04T12:22:13.157Z,39.80
2018-12-04T12:23:13.245Z,40.07
2018-12-04T12:24:13.336Z,40.32
2018-12-04T12:25:13.258Z,40.26
2018-12-04T12:26:13.424Z,40.12
2018-12-04T12:27:13.417Z,39.88
2018-12-04T12:28:13.322Z,39.60
2018-12-04T12:29:13.354Z,39.59
2018-12-04T12:30:13.374Z,39.63
2018-12-04T12:31:13.506Z,39.41
2018-12-04T12:32:13.433Z,39.34
2018-12-04T12:33:13.476Z,39.60
2018-12-04T12:34:13.619Z,39.57
2018-12-04T12:35:13.526Z,39.54
2018-12-04T12:36:13.609Z,39.34
2018-12-04T12:37:13.628Z,38.95
2018-12-04T12:38:13.622Z,38.90
2018-12-04T12:39:13.646Z,39.00
2018-12-04T12:40:13.665Z,38.95
2018-12-04T12:41:13.705Z,39.05
2018-12-04T12:42:13.909Z,39.20
2018-12-04T12:43:13.754Z,39.45
2018-12-04T12:44:13.800Z,39.61
2018-12-04T12:45:13.816Z,39.80
2018-12-04T12:46:13.841Z,40.08
2018-12-04T12:47:14.061Z,39.97
2018-12-04T12:48:13.891Z,39.73
2018-12-04T12:49:13.937Z,39.73
2018-12-04T12:50:13.988Z,39.82
2018-12-04T12:51:13.969Z,39.93
2018-12-04T12:52:14.127Z,40.12
2018-12-04T12:53:14.042Z,40.29
2018-12-04T12:54:14.075Z,40.54
2018-12-04T12:55:14.091Z,41.07